Kansai — JD3272 — position and weather

sailwx.info

Track history (hours):
 
Tides and Currents Weather Stations Pressure Air Temp Water Temp Dewpoint Dewpoint Depression Visibility Wind Speed Wind Dir Waves Ship Positions

Kansai

Last reported at 2014-Sep-30 06:11 UTC. Time now 2014-Sep-30 10:20 UTC.
Position N 33°59' E 135°01'.

Length 73 m; draft 4.2 m.

Type: Cargo ship. MMSI: 431003134.

Date/timePositionNaut miles runAvg speedWind from/ knotsBaromVisibWave heightAir tempDewpointWater temp
2014-Sep-30 06:11N 33°59' E 135°01'812.3
2014-Sep-30 05:30N 34°08' E 134°60'1211.3
2014-Sep-30 04:29N 34°19' E 134°59'1010.9
2014-Sep-30 03:33N 34°27' E 135°07'1211.6
2014-Sep-30 02:33N 34°36' E 135°15'6 5.8
2014-Sep-30 01:33N 34°42' E 135°15'0 0.0
2014-Sep-30 00:33N 34°42' E 135°15'0 0.0
2014-Sep-29 23:33N 34°42' E 135°15'0 0.0
2014-Sep-29 22:33N 34°42' E 135°15'0 0.0
2014-Sep-29 21:33N 34°42' E 135°15'0 0.0
2014-Sep-29 20:33N 34°42' E 135°15'0 0.0
2014-Sep-29 19:33N 34°42' E 135°15'0 0.0
2014-Sep-29 18:33N 34°42' E 135°15'0 0.0
2014-Sep-29 17:33N 34°42' E 135°15'1 0.6
2014-Sep-29 16:33N 34°41' E 135°15'0 0.0
2014-Sep-29 15:33N 34°41' E 135°15'0 0.0
2014-Sep-29 14:33N 34°41' E 135°15'0 0.0
2014-Sep-29 13:33N 34°41' E 135°15'0 0.0
2014-Sep-29 12:33N 34°41' E 135°15'0 0.0
2014-Sep-29 11:33N 34°41' E 135°15'0 0.0
2014-Sep-29 10:33N 34°41' E 135°15'0 0.0
2014-Sep-29 09:33N 34°41' E 135°15'0 0.1
2014-Sep-29 08:33N 34°41' E 135°15'1 0.8
2014-Sep-29 07:33N 34°42' E 135°15'0 0.0
2014-Sep-29 06:33N 34°42' E 135°15'0 0.0
2014-Sep-29 05:33N 34°42' E 135°15'0 0.0
2014-Sep-29 04:33N 34°42' E 135°15'0 0.0
2014-Sep-29 03:33N 34°42' E 135°15'0 0.0
2014-Sep-29 02:33N 34°42' E 135°15'0 0.0
2014-Sep-29 01:33N 34°42' E 135°15'0 0.0
2014-Sep-29 00:33N 34°42' E 135°15'0 0.0
2014-Sep-28 23:33N 34°42' E 135°15'0 0.0
2014-Sep-28 22:33N 34°42' E 135°15'0 0.0
2014-Sep-28 21:33N 34°42' E 135°15'0 0.0
2014-Sep-28 20:33N 34°42' E 135°15'0 0.0
2014-Sep-28 19:33N 34°42' E 135°15'0 0.0
2014-Sep-28 18:33N 34°42' E 135°15'0 0.0
2014-Sep-28 17:33N 34°42' E 135°15'0 0.0
2014-Sep-28 16:33N 34°42' E 135°15'0 0.0
2014-Sep-28 15:33N 34°42' E 135°15'0 0.0
2014-Sep-28 14:33N 34°42' E 135°15'0 0.0
2014-Sep-28 13:33N 34°42' E 135°15'0 0.0
2014-Sep-28 12:33N 34°42' E 135°15'0 0.0
2014-Sep-28 11:33N 34°42' E 135°15'0 0.0
2014-Sep-28 10:33N 34°42' E 135°15'0 0.0
2014-Sep-28 09:33N 34°42' E 135°15'0 0.0
2014-Sep-28 08:33N 34°42' E 135°15'0 0.0
2014-Sep-28 07:33N 34°42' E 135°15'0 0.0
2014-Sep-28 06:33N 34°42' E 135°15'0 0.1
2014-Sep-28 05:33N 34°42' E 135°15'1 0.9
2014-Sep-28 04:33N 34°41' E 135°15'0 0.0
2014-Sep-28 03:33N 34°41' E 135°15'0 0.0
2014-Sep-28 02:33N 34°41' E 135°15'0 0.3
2014-Sep-28 01:33N 34°41' E 135°15'8 8.3
2014-Sep-28 00:33N 34°35' E 135°09'  
2014-Sep-25 08:28N 34°40' E 134°49'8 9.2
2014-Sep-25 07:33N 34°38' E 134°59'9 9.3
2014-Sep-25 06:33N 34°36' E 135°10'8 7.6
2014-Sep-25 05:33N 34°42' E 135°15'0 0.0
2014-Sep-25 04:33N 34°42' E 135°15'0 0.0
2014-Sep-25 03:33N 34°42' E 135°15'0 0.0
2014-Sep-25 02:33N 34°42' E 135°15'0 0.0
2014-Sep-25 01:33N 34°42' E 135°15'0 0.0
2014-Sep-25 00:33N 34°42' E 135°15'0 0.0
2014-Sep-24 23:33N 34°42' E 135°15'0 0.0
2014-Sep-24 22:33N 34°42' E 135°15'0 0.0
2014-Sep-24 21:33N 34°42' E 135°15'0 0.0
2014-Sep-24 20:33N 34°42' E 135°15'0 0.0
2014-Sep-24 19:33N 34°42' E 135°15'5 4.7
2014-Sep-24 18:33N 34°38' E 135°16'1010.3
2014-Sep-24 17:33N 34°35' E 135°04'1312.5
2014-Sep-24 16:32N 34°40' E 134°49'1 0.1
2014-Sep-24 08:31N 34°41' E 134°49'1 0.2
2014-Sep-24 01:33N 34°40' E 134°50'1212.2
2014-Sep-24 00:33N 34°36' E 135°03'  
Track history (hours):
 
Tides and Currents Weather Stations Pressure Air Temp Water Temp Dewpoint Dewpoint Depression Visibility Wind Speed Wind Dir Waves Ship Positions

Kansai

Last reported at 2014-Sep-30 06:11 UTC. Time now 2014-Sep-30 10:20 UTC.
Position N 33°59' E 135°01'.

Length 73 m; draft 4.2 m.

Type: Cargo ship. MMSI: 431003134.

Date/timePositionNaut miles runAvg speedWind from/ knotsBaromVisibWave heightAir tempDewpointWater temp
2014-Sep-30 06:11N 33°59' E 135°01'812.3
2014-Sep-30 05:30N 34°08' E 134°60'1211.3
2014-Sep-30 04:29N 34°19' E 134°59'1010.9
2014-Sep-30 03:33N 34°27' E 135°07'1211.6
2014-Sep-30 02:33N 34°36' E 135°15'6 5.8
2014-Sep-30 01:33N 34°42' E 135°15'0 0.0
2014-Sep-30 00:33N 34°42' E 135°15'0 0.0
2014-Sep-29 23:33N 34°42' E 135°15'0 0.0
2014-Sep-29 22:33N 34°42' E 135°15'0 0.0
2014-Sep-29 21:33N 34°42' E 135°15'0 0.0
2014-Sep-29 20:33N 34°42' E 135°15'0 0.0
2014-Sep-29 19:33N 34°42' E 135°15'0 0.0
2014-Sep-29 18:33N 34°42' E 135°15'0 0.0
2014-Sep-29 17:33N 34°42' E 135°15'1 0.6
2014-Sep-29 16:33N 34°41' E 135°15'0 0.0
2014-Sep-29 15:33N 34°41' E 135°15'0 0.0
2014-Sep-29 14:33N 34°41' E 135°15'0 0.0
2014-Sep-29 13:33N 34°41' E 135°15'0 0.0
2014-Sep-29 12:33N 34°41' E 135°15'0 0.0
2014-Sep-29 11:33N 34°41' E 135°15'0 0.0
2014-Sep-29 10:33N 34°41' E 135°15'0 0.0
2014-Sep-29 09:33N 34°41' E 135°15'0 0.1
2014-Sep-29 08:33N 34°41' E 135°15'1 0.8
2014-Sep-29 07:33N 34°42' E 135°15'0 0.0
2014-Sep-29 06:33N 34°42' E 135°15'0 0.0
2014-Sep-29 05:33N 34°42' E 135°15'0 0.0
2014-Sep-29 04:33N 34°42' E 135°15'0 0.0
2014-Sep-29 03:33N 34°42' E 135°15'0 0.0
2014-Sep-29 02:33N 34°42' E 135°15'0 0.0
2014-Sep-29 01:33N 34°42' E 135°15'0 0.0
2014-Sep-29 00:33N 34°42' E 135°15'0 0.0
2014-Sep-28 23:33N 34°42' E 135°15'0 0.0
2014-Sep-28 22:33N 34°42' E 135°15'0 0.0
2014-Sep-28 21:33N 34°42' E 135°15'0 0.0
2014-Sep-28 20:33N 34°42' E 135°15'0 0.0
2014-Sep-28 19:33N 34°42' E 135°15'0 0.0
2014-Sep-28 18:33N 34°42' E 135°15'0 0.0
2014-Sep-28 17:33N 34°42' E 135°15'0 0.0
2014-Sep-28 16:33N 34°42' E 135°15'0 0.0
2014-Sep-28 15:33N 34°42' E 135°15'0 0.0
2014-Sep-28 14:33N 34°42' E 135°15'0 0.0
2014-Sep-28 13:33N 34°42' E 135°15'0 0.0
2014-Sep-28 12:33N 34°42' E 135°15'0 0.0
2014-Sep-28 11:33N 34°42' E 135°15'0 0.0
2014-Sep-28 10:33N 34°42' E 135°15'0 0.0
2014-Sep-28 09:33N 34°42' E 135°15'0 0.0
2014-Sep-28 08:33N 34°42' E 135°15'0 0.0
2014-Sep-28 07:33N 34°42' E 135°15'0 0.0
2014-Sep-28 06:33N 34°42' E 135°15'0 0.1
2014-Sep-28 05:33N 34°42' E 135°15'1 0.9
2014-Sep-28 04:33N 34°41' E 135°15'0 0.0
2014-Sep-28 03:33N 34°41' E 135°15'0 0.0
2014-Sep-28 02:33N 34°41' E 135°15'0 0.3
2014-Sep-28 01:33N 34°41' E 135°15'8 8.3
2014-Sep-28 00:33N 34°35' E 135°09'  
2014-Sep-25 08:28N 34°40' E 134°49'8 9.2
2014-Sep-25 07:33N 34°38' E 134°59'9 9.3
2014-Sep-25 06:33N 34°36' E 135°10'8 7.6
2014-Sep-25 05:33N 34°42' E 135°15'0 0.0
2014-Sep-25 04:33N 34°42' E 135°15'0 0.0
2014-Sep-25 03:33N 34°42' E 135°15'0 0.0
2014-Sep-25 02:33N 34°42' E 135°15'0 0.0
2014-Sep-25 01:33N 34°42' E 135°15'0 0.0
2014-Sep-25 00:33N 34°42' E 135°15'0 0.0
2014-Sep-24 23:33N 34°42' E 135°15'0 0.0
2014-Sep-24 22:33N 34°42' E 135°15'0 0.0
2014-Sep-24 21:33N 34°42' E 135°15'0 0.0
2014-Sep-24 20:33N 34°42' E 135°15'0 0.0
2014-Sep-24 19:33N 34°42' E 135°15'5 4.7
2014-Sep-24 18:33N 34°38' E 135°16'1010.3
2014-Sep-24 17:33N 34°35' E 135°04'1312.5
2014-Sep-24 16:32N 34°40' E 134°49'1 0.1
2014-Sep-24 08:31N 34°41' E 134°49'1 0.2
2014-Sep-24 01:33N 34°40' E 134°50'1212.2
2014-Sep-24 00:33N 34°36' E 135°03'  

Dump ship's entire track history